Archiv-/Tagesdaten

--Timestamp---	Temp	Chill	HIndex	Humid	Dewpt	 Wind 	HiWind	WindDir	Rain 	Barom	Solar	 ET  	 UV 
--------------	----	-----	------	-----	-----	------	------	-------	-----	-----	-----	-----	----
20100530 00:00	12.8	12.8	12.8	88	10.9	2	6	225	0.0	1014.4	0	0.000	0.0
20100530 00:05	12.8	12.8	12.8	88	10.9	5	6	225	0.0	1014.4	0	0.000	0.0
20100530 00:10	12.8	12.8	12.8	88	10.8	3	6	180	0.0	1014.2	0	0.000	0.0
20100530 00:15	12.7	12.7	12.7	88	10.8	3	10	180	0.0	1014.3	0	0.000	0.0
20100530 00:20	12.7	12.7	12.7	88	10.8	3	6	180	0.0	1014.3	0	0.000	0.0
20100530 00:25	12.7	12.7	12.7	88	10.7	3	8	180	0.0	1014.3	0	0.000	0.0
20100530 00:30	12.7	12.7	12.7	89	10.9	3	6	180	0.0	1014.3	0	0.000	0.0
20100530 00:35	12.7	12.7	12.7	89	10.9	3	8	180	0.0	1014.3	0	0.000	0.0
20100530 00:40	12.7	12.7	12.7	89	10.9	3	10	202	0.0	1014.3	0	0.000	0.0
20100530 00:45	12.6	12.6	12.6	89	10.8	2	8	202	0.0	1014.3	0	0.000	0.0
20100530 00:50	12.7	12.7	12.7	89	10.9	0	3	202	0.0	1014.3	0	0.000	0.0
20100530 00:55	12.7	12.7	12.7	89	10.9	0	5	202	0.0	1014.2	0	0.000	0.0
20100530 01:00	12.6	12.6	12.6	89	10.8	2	5	202	0.0	1014.4	0	0.000	0.0
20100530 01:05	12.6	12.6	12.6	89	10.8	3	6	202	0.0	1014.4	0	0.000	0.0
20100530 01:10	12.6	12.6	12.6	89	10.8	3	8	202	0.0	1014.4	0	0.000	0.0
20100530 01:15	12.6	12.6	12.6	88	10.6	3	8	202	0.0	1014.4	0	0.000	0.0
20100530 01:20	12.5	12.5	12.5	88	10.6	3	10	248	0.2	1014.4	0	0.000	0.0
20100530 01:25	12.6	12.6	12.6	88	10.6	3	6	248	0.2	1014.4	0	0.000	0.0
20100530 01:30	12.5	12.5	12.5	89	10.7	3	10	225	1.0	1014.4	0	0.000	0.0
20100530 01:35	12.6	12.6	12.6	89	10.8	6	16	225	0.4	1014.3	0	0.000	0.0
20100530 01:40	12.6	12.6	12.6	90	11.0	8	18	225	0.0	1014.2	0	0.000	0.0
20100530 01:45	12.6	12.6	12.6	90	11.0	8	19	225	0.0	1014.1	0	0.000	0.0
20100530 01:50	12.6	12.6	12.6	90	11.0	5	13	202	0.0	1014.0	0	0.000	0.0
20100530 01:55	12.6	12.6	12.6	90	11.0	6	11	225	0.0	1013.9	0	0.000	0.0
20100530 02:00	12.6	12.6	12.6	90	11.0	5	8	225	0.0	1013.8	0	0.000	0.0
20100530 02:05	12.6	12.6	12.6	90	11.0	5	10	225	0.0	1013.6	0	0.000	0.0
20100530 02:10	12.6	12.6	12.6	90	11.0	3	8	202	0.0	1013.5	0	0.000	0.0
20100530 02:15	12.5	12.5	12.5	90	10.9	3	8	202	0.0	1013.5	0	0.000	0.0
20100530 02:20	12.6	12.6	12.6	90	11.0	5	10	202	0.0	1013.5	0	0.000	0.0
20100530 02:25	12.5	12.5	12.5	90	10.9	5	10	202	0.0	1013.5	0	0.000	0.0
20100530 02:30	12.5	12.5	12.5	90	10.9	2	6	225	0.0	1013.5	0	0.000	0.0
20100530 02:35	12.5	12.5	12.5	90	10.9	3	6	225	0.0	1013.4	0	0.000	0.0
20100530 02:40	12.4	12.4	12.4	89	10.7	5	10	225	0.0	1013.5	0	0.000	0.0
20100530 02:45	12.4	12.4	12.4	89	10.7	3	10	202	0.0	1013.4	0	0.000	0.0
20100530 02:50	12.4	12.4	12.4	89	10.6	5	11	225	0.0	1013.3	0	0.000	0.0
20100530 02:55	12.3	12.3	12.3	89	10.6	5	10	225	0.0	1013.3	0	0.000	0.0
20100530 03:00	12.3	12.3	12.3	89	10.6	5	10	225	0.0	1013.3	0	0.000	0.0
20100530 03:05	12.3	12.3	12.3	88	10.4	6	11	225	0.0	1013.1	0	0.000	0.0
20100530 03:10	12.3	12.3	12.3	88	10.3	5	10	202	0.0	1013.1	0	0.000	0.0
20100530 03:15	12.2	12.2	12.2	88	10.3	5	10	202	0.2	1013.0	0	0.000	0.0
20100530 03:20	12.2	12.2	12.2	88	10.3	6	11	202	0.0	1012.9	0	0.000	0.0
20100530 03:25	12.1	12.1	12.1	88	10.2	6	11	225	0.0	1012.8	0	0.000	0.0
20100530 03:30	12.1	12.1	12.1	88	10.1	6	14	202	0.0	1012.8	0	0.000	0.0
20100530 03:35	12.0	12.0	12.0	88	10.1	5	11	202	0.0	1012.6	0	0.000	0.0
20100530 03:40	11.9	11.9	11.9	88	10.0	3	6	202	0.0	1012.5	0	0.000	0.0
20100530 03:45	11.9	11.9	11.9	88	10.0	5	10	202	0.0	1012.4	0	0.000	0.0
20100530 03:50	11.9	11.9	11.9	89	10.1	3	8	180	0.0	1012.3	0	0.000	0.0
20100530 03:55	11.9	11.9	11.9	89	10.1	3	6	180	0.0	1012.3	0	0.000	0.0
20100530 04:00	11.8	11.8	11.8	89	10.1	5	11	202	0.0	1012.3	0	0.025	0.0
20100530 04:05	11.8	11.8	11.8	89	10.1	6	16	180	0.0	1011.9	0	0.000	0.0
20100530 04:10	11.8	11.8	11.8	89	10.1	6	11	180	0.0	1012.0	0	0.000	0.0
20100530 04:15	11.8	11.8	11.8	89	10.0	5	10	202	0.0	1012.0	0	0.000	0.0
20100530 04:20	11.8	11.8	11.8	88	9.9	5	11	202	0.0	1011.8	0	0.000	0.0
20100530 04:25	11.8	11.8	11.8	89	10.0	5	10	180	0.0	1011.7	0	0.000	0.0
20100530 04:30	11.8	11.8	11.8	89	10.0	3	10	202	0.0	1011.6	0	0.000	0.0
20100530 04:35	11.7	11.7	11.7	89	10.0	5	8	180	0.0	1011.4	0	0.000	0.0
20100530 04:40	11.7	11.7	11.7	89	9.9	3	10	180	0.0	1011.3	0	0.000	0.0
20100530 04:45	11.6	11.6	11.6	89	9.9	3	8	202	0.0	1011.2	0	0.000	0.0
20100530 04:50	11.6	11.6	11.6	89	9.8	3	8	180	0.0	1011.2	0	0.000	0.0
20100530 04:55	11.5	11.5	11.5	89	9.7	3	8	180	0.0	1011.0	0	0.000	0.0
20100530 05:00	11.4	11.4	11.4	89	9.6	5	8	180	0.2	1011.0	0	0.000	0.0
20100530 05:05	11.3	11.3	11.3	89	9.6	3	8	180	0.0	1011.0	0	0.000	0.0
20100530 05:10	11.3	11.3	11.3	88	9.4	2	6	180	0.0	1010.9	0	0.000	0.0
20100530 05:15	11.3	11.3	11.3	89	9.5	3	8	180	0.0	1011.0	0	0.000	0.0
20100530 05:20	11.3	11.3	11.3	89	9.5	5	10	202	0.0	1011.0	0	0.000	0.0
20100530 05:25	11.3	11.3	11.3	88	9.4	6	11	202	0.0	1011.1	0	0.000	0.0
20100530 05:30	11.3	11.3	11.3	88	9.4	6	11	202	0.0	1011.1	1	0.000	0.0
20100530 05:35	11.3	11.3	11.3	88	9.4	8	14	202	0.0	1011.1	6	0.000	0.0
20100530 05:40	11.3	11.3	11.3	88	9.4	8	13	202	0.0	1011.1	6	0.000	0.0
20100530 05:45	11.3	11.3	11.3	88	9.4	6	14	225	0.0	1011.1	5	0.000	0.0
20100530 05:50	11.3	11.3	11.3	89	9.5	6	11	202	0.0	1011.2	7	0.000	0.0
20100530 05:55	11.3	11.3	11.3	89	9.5	6	10	202	0.0	1011.2	7	0.000	0.0
20100530 06:00	11.3	11.3	11.3	89	9.5	6	11	225	0.0	1011.2	9	0.000	0.0
20100530 06:05	11.3	11.3	11.3	89	9.5	6	14	225	0.0	1011.5	11	0.000	0.0
20100530 06:10	11.3	11.3	11.3	89	9.6	6	16	248	0.0	1011.5	13	0.000	0.0
20100530 06:15	11.4	11.4	11.4	89	9.6	6	16	248	0.0	1011.3	16	0.000	0.0
20100530 06:20	11.4	11.4	11.4	89	9.7	6	11	225	0.0	1011.3	20	0.000	0.0
20100530 06:25	11.5	11.5	11.5	89	9.7	8	13	225	0.0	1011.4	21	0.000	0.0
20100530 06:30	11.5	11.5	11.5	88	9.6	8	13	225	0.0	1011.3	19	0.000	0.0
20100530 06:35	11.6	11.6	11.6	88	9.7	6	11	225	0.0	1011.3	13	0.000	0.0
20100530 06:40	11.6	11.6	11.6	88	9.7	5	10	225	0.0	1011.4	13	0.000	0.0
20100530 06:45	11.6	11.6	11.6	88	9.7	5	8	225	0.0	1011.5	16	0.000	0.0
20100530 06:50	11.7	11.7	11.7	88	9.7	6	11	248	0.0	1011.7	16	0.000	0.0
20100530 06:55	11.6	11.6	11.6	88	9.7	10	16	270	0.2	1011.7	22	0.000	0.0
20100530 07:00	11.6	11.6	11.6	88	9.7	6	14	270	0.0	1011.6	32	0.025	0.0
20100530 07:05	11.6	11.6	11.6	88	9.6	5	13	270	0.0	1011.7	31	0.000	0.0
20100530 07:10	11.6	11.6	11.6	88	9.6	3	8	270	0.2	1011.6	28	0.000	0.0
20100530 07:15	11.6	11.6	11.6	89	9.8	3	8	270	0.0	1011.6	30	0.000	0.0
20100530 07:20	11.6	11.6	11.6	89	9.8	3	6	270	0.0	1011.6	33	0.000	0.0
20100530 07:25	11.6	11.6	11.6	89	9.8	2	5	270	0.0	1011.6	28	0.000	0.0
20100530 07:30	11.6	11.6	11.6	89	9.8	0	3	270	0.2	1011.5	28	0.000	0.0
20100530 07:35	11.6	11.6	11.6	90	10.0	2	8	270	0.0	1011.5	45	0.000	0.0
20100530 07:40	11.6	11.6	11.6	90	10.0	2	6	270	0.0	1011.5	51	0.000	0.0
20100530 07:45	11.6	11.6	11.6	90	10.0	2	5	270	0.2	1011.4	46	0.000	0.0
20100530 07:50	11.6	11.6	11.6	90	10.0	3	8	270	0.2	1011.4	37	0.000	0.0
20100530 07:55	11.6	11.6	11.6	90	10.0	3	6	270	0.0	1011.4	35	0.000	0.0
20100530 08:00	11.7	11.7	11.7	90	10.1	2	8	270	0.0	1011.4	41	0.025	0.0
20100530 08:05	11.7	11.7	11.7	90	10.1	5	10	225	0.0	1011.6	55	0.000	0.0
20100530 08:10	11.8	11.8	11.8	91	10.4	3	6	225	0.2	1011.8	71	0.000	0.0
20100530 08:15	11.8	11.8	11.8	91	10.4	5	11	225	0.0	1011.7	62	0.000	0.0
20100530 08:20	11.8	11.8	11.8	91	10.4	5	10	248	0.2	1011.8	44	0.000	0.0
20100530 08:25	11.8	11.8	11.8	91	10.4	6	14	225	0.0	1011.9	39	0.000	0.0
20100530 08:30	11.8	11.8	11.8	91	10.4	6	16	225	0.2	1011.9	46	0.000	0.0
20100530 08:35	11.8	11.8	11.8	91	10.4	8	13	248	0.0	1011.8	58	0.000	0.0
20100530 08:40	11.8	11.8	11.8	91	10.4	8	16	225	0.2	1011.8	69	0.000	0.0
20100530 08:45	11.7	11.7	11.7	91	10.3	10	13	225	0.2	1011.8	70	0.000	0.0
20100530 08:50	11.7	11.7	11.7	90	10.1	13	23	225	0.0	1011.9	73	0.000	0.0
20100530 08:55	11.7	11.7	11.7	90	10.1	13	23	248	0.2	1011.9	82	0.000	0.4
20100530 09:00	11.7	11.7	11.7	90	10.1	11	26	248	0.0	1011.8	65	0.025	0.0
20100530 09:05	11.7	11.7	11.7	89	10.0	13	24	225	0.0	1011.9	63	0.000	0.0
20100530 09:10	11.7	11.7	11.7	88	9.7	14	31	248	0.0	1011.8	58	0.000	0.0
20100530 09:15	11.7	11.7	11.7	89	9.9	13	29	248	0.2	1011.7	77	0.000	0.4
20100530 09:20	11.7	11.7	11.7	89	9.9	13	23	248	0.0	1011.6	82	0.000	0.5
20100530 09:25	11.7	11.7	11.7	88	9.7	14	24	225	0.0	1011.4	82	0.000	0.5
20100530 09:30	11.7	11.7	11.7	88	9.8	11	29	225	0.0	1011.3	97	0.000	0.6
20100530 09:35	11.8	11.8	11.8	88	9.9	14	26	225	0.0	1011.0	114	0.000	0.7
20100530 09:40	11.8	11.8	11.8	88	9.9	10	26	225	0.0	1011.2	90	0.000	0.6
20100530 09:45	11.8	11.8	11.8	89	10.1	6	16	225	0.2	1011.2	101	0.000	0.7
20100530 09:50	11.8	11.8	11.8	89	10.1	8	18	248	0.0	1011.3	152	0.000	1.0
20100530 09:55	11.9	11.9	11.9	89	10.1	8	13	248	0.0	1011.3	203	0.000	1.3
20100530 10:00	12.0	12.0	12.0	89	10.2	10	18	225	0.0	1011.2	227	0.076	1.5
20100530 10:05	12.2	12.2	12.2	89	10.4	10	16	248	0.0	1011.4	240	0.000	1.6
20100530 10:10	12.3	12.3	12.3	88	10.4	6	14	248	0.0	1011.4	231	0.000	1.6
20100530 10:15	12.5	12.5	12.5	88	10.6	11	18	225	0.0	1011.3	221	0.000	1.7
20100530 10:20	12.7	12.7	12.7	88	10.7	6	11	225	0.0	1011.2	248	0.000	2.0
20100530 10:25	12.8	12.8	12.8	87	10.7	11	19	270	0.0	1011.2	331	0.000	2.5
20100530 10:30	13.0	13.0	13.0	86	10.7	10	21	270	0.0	1011.1	325	0.000	2.4
20100530 10:35	13.2	13.2	13.2	86	10.9	10	18	225	0.0	1010.9	397	0.000	2.9
20100530 10:40	13.5	13.5	13.5	85	11.0	10	18	248	0.0	1010.9	462	0.000	2.9
20100530 10:45	13.7	13.7	13.7	84	11.1	10	19	248	0.0	1010.9	332	0.000	2.6
20100530 10:50	13.9	13.9	13.9	81	10.7	13	24	225	0.0	1010.8	333	0.000	2.9
20100530 10:55	14.1	14.1	14.1	80	10.7	16	26	225	0.0	1010.8	442	0.000	3.3
20100530 11:00	14.3	14.3	14.3	78	10.5	14	27	248	0.0	1010.7	383	0.178	3.1
20100530 11:05	14.5	14.5	14.5	78	10.7	14	24	248	0.0	1010.7	394	0.000	3.9
20100530 11:10	14.9	14.9	14.9	77	10.9	13	31	248	0.0	1010.5	617	0.000	4.4
20100530 11:15	15.0	15.0	15.0	75	10.6	16	31	248	0.0	1010.5	540	0.000	4.2
20100530 11:20	15.2	15.2	15.2	73	10.4	18	31	248	0.0	1010.4	515	0.000	4.1
20100530 11:25	15.4	15.4	15.4	76	11.2	14	27	248	0.0	1010.4	567	0.000	4.6
20100530 11:30	15.6	15.6	15.6	73	10.8	16	29	248	0.0	1010.4	450	0.000	3.8
20100530 11:35	15.7	15.7	15.7	72	10.6	18	32	248	0.0	1010.3	346	0.000	3.1
20100530 11:40	15.6	15.6	15.6	71	10.3	21	40	248	0.0	1010.3	237	0.000	2.3
20100530 11:45	15.6	15.6	15.6	73	10.8	14	27	248	0.0	1010.2	355	0.000	3.3
20100530 11:50	15.9	15.9	15.9	73	11.1	18	37	270	0.0	1010.1	540	0.000	4.4
20100530 11:55	16.1	16.1	16.1	71	10.8	21	37	248	0.0	1010.2	583	0.000	5.4
20100530 12:00	16.3	16.3	16.3	70	10.8	19	29	248	0.0	1010.1	575	0.305	4.7
20100530 12:05	16.4	16.4	16.4	70	11.0	19	31	270	0.0	1009.9	620	0.000	5.8
20100530 12:10	16.7	16.7	16.7	69	11.0	19	32	248	0.0	1009.8	485	0.000	6.5
20100530 12:15	17.0	17.0	17.0	70	11.5	19	29	270	0.0	1009.6	857	0.000	6.0
20100530 12:20	17.1	17.1	17.1	67	10.9	14	24	248	0.0	1009.5	401	0.000	3.4
20100530 12:25	16.9	16.9	16.9	69	11.2	14	29	270	0.0	1009.5	284	0.000	2.5
20100530 12:30	16.6	16.6	16.6	72	11.5	16	29	248	0.0	1009.5	263	0.000	2.4
20100530 12:35	16.3	16.3	16.3	73	11.4	13	27	248	0.0	1009.5	208	0.000	2.0
20100530 12:40	15.9	15.9	15.9	73	11.1	18	31	248	0.0	1009.6	152	0.000	1.5
20100530 12:45	15.6	15.6	15.6	75	11.2	18	27	248	0.0	1009.8	204	0.000	1.9
20100530 12:50	15.5	15.5	15.5	76	11.3	14	26	248	0.0	1009.8	209	0.000	2.0
20100530 12:55	15.5	15.5	15.5	73	10.7	19	29	248	0.0	1009.8	275	0.000	2.6
20100530 13:00	15.6	15.6	15.6	72	10.5	16	31	225	0.0	1009.7	250	0.254	2.1
20100530 13:05	15.8	15.8	15.8	72	10.7	19	34	270	0.0	1009.6	316	0.000	3.7
20100530 13:10	16.2	16.2	16.2	72	11.1	19	34	225	0.0	1009.4	343	0.000	6.6
20100530 13:15	16.6	16.6	16.6	70	11.1	19	29	248	0.0	1009.3	443	0.000	5.7
20100530 13:20	16.8	16.8	16.8	68	10.8	21	37	248	0.0	1009.2	893	0.000	6.6
20100530 13:25	17.3	17.3	17.3	69	11.5	19	35	270	0.0	1009.0	838	0.000	6.8
20100530 13:30	17.3	17.3	17.3	68	11.3	18	29	270	0.0	1008.9	378	0.000	3.8
20100530 13:35	17.2	17.2	17.2	69	11.4	18	31	248	0.0	1008.9	438	0.000	4.3
20100530 13:40	17.2	17.2	17.2	69	11.5	16	31	248	0.0	1008.7	378	0.000	3.6
20100530 13:45	17.2	17.2	17.2	70	11.7	11	18	270	0.0	1008.6	258	0.000	2.3
20100530 13:50	17.2	17.2	17.2	69	11.4	13	24	270	0.0	1008.5	279	0.000	2.6
20100530 13:55	17.4	17.4	17.4	71	12.1	10	21	248	0.0	1008.4	320	0.000	6.8
20100530 14:00	17.8	17.8	17.8	68	11.8	11	23	248	0.0	1008.3	265	0.330	3.4
20100530 14:05	17.6	17.6	17.6	68	11.6	18	34	248	0.0	1008.3	174	0.000	1.5
20100530 14:10	17.4	17.4	17.4	69	11.6	14	24	270	0.0	1008.3	330	0.000	3.0
20100530 14:15	17.5	17.5	17.5	69	11.7	16	27	270	0.0	1008.2	392	0.000	4.3
20100530 14:20	17.8	17.8	17.8	67	11.6	19	37	248	0.0	1008.3	287	0.000	2.8
20100530 14:25	17.4	17.4	17.4	65	10.8	23	37	270	0.0	1008.2	344	0.000	3.1
20100530 14:30	17.3	17.3	17.3	68	11.3	16	32	270	0.0	1008.5	239	0.000	2.2
20100530 14:35	16.7	16.7	16.7	75	12.2	23	42	270	0.4	1008.9	45	0.000	0.1
20100530 14:40	15.2	15.2	15.2	81	12.0	19	32	248	0.0	1008.9	80	0.000	0.7
20100530 14:45	14.7	14.7	14.7	84	12.0	16	31	248	0.2	1009.1	148	0.000	1.3
20100530 14:50	14.5	14.5	14.5	86	12.2	14	26	270	0.0	1009.1	182	0.000	1.5
20100530 14:55	14.6	14.6	14.6	86	12.2	14	24	270	0.0	1008.9	267	0.000	2.1
20100530 15:00	14.8	14.8	14.8	85	12.3	14	24	270	0.0	1008.9	440	0.203	3.2
20100530 15:05	15.3	15.3	15.3	84	12.6	14	26	270	0.0	1008.9	519	0.000	4.0
20100530 15:10	15.6	15.6	15.6	82	12.5	16	29	270	0.0	1008.6	347	0.000	2.9
20100530 15:15	15.8	15.8	15.8	80	12.3	16	31	270	0.0	1008.6	216	0.000	2.0
20100530 15:20	15.9	15.9	15.9	79	12.2	16	27	270	0.0	1008.4	347	0.000	2.6
20100530 15:25	16.2	16.2	16.2	78	12.3	21	34	248	0.0	1008.2	491	0.000	3.6
20100530 15:30	16.4	16.4	16.4	76	12.1	19	35	270	0.0	1008.2	182	0.000	1.8
20100530 15:35	16.5	16.5	16.5	75	12.1	16	34	248	0.0	1008.1	462	0.000	3.3
20100530 15:40	16.6	16.6	16.6	74	12.0	21	34	248	0.0	1008.1	378	0.000	3.3
20100530 15:45	17.1	17.1	17.1	74	12.4	18	32	248	0.0	1008.0	1070	0.000	5.5
20100530 15:50	17.4	17.4	17.4	70	11.9	24	35	248	0.0	1007.9	910	0.000	5.2
20100530 15:55	17.8	17.8	17.8	69	12.1	19	35	248	0.0	1007.9	818	0.000	4.5
20100530 16:00	17.8	17.8	17.8	68	11.8	24	39	248	0.0	1007.8	785	0.356	4.6
20100530 16:05	17.7	17.7	17.7	68	11.7	23	42	270	0.0	1007.8	486	0.000	3.2
20100530 16:10	16.8	16.8	16.8	68	10.9	31	45	248	0.0	1008.1	117	0.000	1.4
20100530 16:15	15.6	15.6	15.6	71	10.3	29	50	248	0.2	1008.2	98	0.000	0.7
20100530 16:20	14.6	14.6	14.6	76	10.4	26	48	270	0.2	1008.4	95	0.000	0.7
20100530 16:25	14.1	14.1	14.1	81	10.9	14	27	270	0.2	1008.4	391	0.000	2.1
20100530 16:30	14.4	14.4	14.4	83	11.5	11	21	270	0.0	1008.1	617	0.000	3.1
20100530 16:35	15.0	15.0	15.0	82	11.9	14	23	248	0.0	1008.0	661	0.000	3.3
20100530 16:40	15.6	15.6	15.6	80	12.2	18	27	248	0.0	1008.0	619	0.000	3.1
20100530 16:45	16.0	16.0	16.0	79	12.4	18	34	248	0.0	1007.8	600	0.000	3.0
20100530 16:50	16.4	16.4	16.4	77	12.3	16	32	225	0.0	1007.7	629	0.000	2.9
20100530 16:55	16.4	16.4	16.4	76	12.2	19	32	225	0.0	1007.7	612	0.000	2.8
20100530 17:00	16.6	16.6	16.6	76	12.3	19	35	248	0.0	1007.6	621	0.305	2.7
20100530 17:05	16.8	16.8	16.8	76	12.5	14	29	248	0.0	1007.5	599	0.000	2.6
20100530 17:10	16.8	16.8	16.8	72	11.7	18	32	248	0.0	1007.4	591	0.000	2.5
20100530 17:15	16.8	16.8	16.8	71	11.5	19	31	248	0.0	1007.4	587	0.000	2.4
20100530 17:20	16.9	16.9	16.9	71	11.6	18	29	270	0.0	1007.5	609	0.000	2.2
20100530 17:25	16.8	16.8	16.8	69	11.1	16	23	270	0.0	1007.4	115	0.000	1.3
20100530 17:30	16.4	16.4	16.4	70	11.0	14	26	270	0.0	1007.5	37	0.000	0.0
20100530 17:35	16.3	16.3	16.3	75	11.8	18	32	292	0.0	1007.8	259	0.000	1.1
20100530 17:40	16.5	16.5	16.5	74	11.8	19	37	292	0.0	1007.8	605	0.000	1.9
20100530 17:45	16.7	16.7	16.7	70	11.2	19	29	292	0.0	1007.7	496	0.000	1.7
20100530 17:50	16.9	16.9	16.9	69	11.2	21	37	292	0.0	1007.9	469	0.000	1.6
20100530 17:55	17.0	17.0	17.0	71	11.7	18	31	292	0.0	1007.8	454	0.000	1.6
20100530 18:00	17.0	17.0	17.0	68	11.0	21	39	292	0.0	1007.8	434	0.305	1.5
20100530 18:05	17.1	17.1	17.1	68	11.2	14	32	292	0.0	1007.6	425	0.000	1.4
20100530 18:10	17.3	17.3	17.3	69	11.6	16	27	292	0.0	1007.6	410	0.000	1.3
20100530 18:15	17.5	17.5	17.5	66	11.1	18	31	270	0.0	1007.8	398	0.000	1.2
20100530 18:20	17.5	17.5	17.5	66	11.1	18	29	292	0.0	1007.7	396	0.000	1.2
20100530 18:25	17.4	17.4	17.4	66	11.0	18	29	292	0.0	1007.6	183	0.000	1.0
20100530 18:30	17.3	17.3	17.3	64	10.5	18	34	315	0.0	1007.6	397	0.000	1.0
20100530 18:35	17.4	17.4	17.4	64	10.5	19	37	292	0.0	1007.6	360	0.000	0.9
20100530 18:40	17.3	17.3	17.3	61	9.7	23	37	292	0.0	1007.6	340	0.000	0.9
20100530 18:45	17.3	17.3	17.3	61	9.7	19	35	292	0.0	1007.6	335	0.000	0.8
20100530 18:50	17.3	17.3	17.3	60	9.4	19	32	270	0.0	1007.6	320	0.000	0.7
20100530 18:55	17.0	17.0	17.0	61	9.4	18	35	292	0.0	1007.5	117	0.000	0.4
20100530 19:00	16.5	16.5	16.5	61	8.9	21	32	292	0.0	1007.8	83	0.254	0.0
20100530 19:05	16.2	16.2	16.2	63	9.2	13	26	292	0.0	1007.8	80	0.000	0.0
20100530 19:10	16.0	16.0	16.0	64	9.2	18	31	270	0.0	1007.8	87	0.000	0.0
20100530 19:15	15.9	15.9	15.9	65	9.3	13	26	292	0.0	1007.8	125	0.000	0.0
20100530 19:20	15.9	15.9	15.9	64	9.1	14	26	292	0.0	1007.9	100	0.000	0.0
20100530 19:25	15.9	15.9	15.9	66	9.5	10	19	292	0.0	1007.9	46	0.000	0.0
20100530 19:30	15.7	15.7	15.7	66	9.4	16	26	292	0.0	1008.2	43	0.000	0.0
20100530 19:35	15.7	15.7	15.7	63	8.6	23	39	292	0.0	1008.3	44	0.000	0.0
20100530 19:40	15.7	15.7	15.7	63	8.6	19	37	292	0.0	1008.4	41	0.000	0.0
20100530 19:45	15.6	15.6	15.6	63	8.5	19	34	270	0.0	1008.3	40	0.000	0.0
20100530 19:50	15.5	15.5	15.5	63	8.5	19	32	292	0.0	1008.3	45	0.000	0.0
20100530 19:55	15.4	15.4	15.4	64	8.6	18	26	270	0.0	1008.4	44	0.000	0.0
20100530 20:00	15.3	15.3	15.3	64	8.6	18	26	292	0.0	1008.5	42	0.102	0.0
20100530 20:05	15.2	15.2	15.2	65	8.7	13	19	292	0.0	1008.5	34	0.000	0.0
20100530 20:10	15.2	15.2	15.2	65	8.6	13	19	292	0.0	1008.5	27	0.000	0.0
20100530 20:15	15.1	15.1	15.1	65	8.5	13	19	292	0.0	1008.5	21	0.000	0.0
20100530 20:20	15.0	15.0	15.0	66	8.7	11	19	270	0.0	1008.5	13	0.000	0.0
20100530 20:25	15.0	15.0	15.0	66	8.7	10	21	270	0.0	1008.7	3	0.000	0.0
20100530 20:30	14.9	14.9	14.9	70	9.5	14	31	248	0.0	1008.6	0	0.000	0.0
20100530 20:35	14.4	14.4	14.4	70	9.0	21	35	248	0.0	1008.8	5	0.000	0.0
20100530 20:40	14.0	14.0	14.0	72	9.0	23	39	248	0.0	1008.7	10	0.000	0.0
20100530 20:45	13.7	13.7	13.7	75	9.3	18	35	270	0.0	1008.7	6	0.000	0.0
20100530 20:50	13.3	13.3	13.3	77	9.4	18	31	248	0.0	1008.9	2	0.000	0.0
20100530 20:55	13.1	13.1	13.1	78	9.4	16	31	248	0.0	1008.8	0	0.000	0.0
20100530 21:00	12.9	12.9	12.9	78	9.2	18	27	248	0.0	1008.7	0	0.076	0.0
20100530 21:05	12.9	12.9	12.9	78	9.2	16	26	248	0.0	1008.9	0	0.000	0.0
20100530 21:10	12.9	12.9	12.9	79	9.3	21	42	270	0.0	1009.0	0	0.000	0.0
20100530 21:15	12.6	12.6	12.6	80	9.2	19	34	270	0.2	1009.1	0	0.000	0.0
20100530 21:20	12.2	12.2	12.2	83	9.4	10	19	270	0.2	1009.0	0	0.000	0.0
20100530 21:25	12.1	12.1	12.1	85	9.6	6	16	248	0.0	1008.9	0	0.000	0.0
20100530 21:30	11.9	11.9	11.9	86	9.7	14	31	248	1.2	1009.0	0	0.000	0.0
20100530 21:35	11.9	11.9	11.9	86	9.6	21	43	248	0.4	1009.0	0	0.000	0.0
20100530 21:40	11.8	11.8	11.8	88	9.9	18	34	270	0.6	1009.1	0	0.000	0.0
20100530 21:45	11.7	11.7	11.7	88	9.8	16	27	270	0.2	1009.1	0	0.000	0.0
20100530 21:50	11.7	11.7	11.7	89	9.9	14	27	270	0.2	1009.2	0	0.000	0.0
20100530 21:55	11.6	11.6	11.6	90	10.0	14	23	292	0.2	1009.5	0	0.000	0.0
20100530 22:00	11.6	11.6	11.6	90	10.0	19	39	292	0.2	1009.4	0	0.025	0.0
20100530 22:05	11.4	11.4	11.4	90	9.9	13	21	292	0.0	1008.9	0	0.000	0.0
20100530 22:10	11.3	11.3	11.3	89	9.5	13	23	270	0.2	1009.0	0	0.000	0.0
20100530 22:15	11.2	11.2	11.2	89	9.4	13	23	270	0.2	1008.8	0	0.000	0.0
20100530 22:20	10.9	10.9	10.9	89	9.2	10	18	270	0.2	1008.7	0	0.000	0.0
20100530 22:25	10.9	10.9	10.9	90	9.3	10	18	270	0.0	1008.5	0	0.000	0.0
20100530 22:30	10.9	10.9	10.9	90	9.4	8	14	248	0.0	1008.5	0	0.000	0.0
20100530 22:35	11.0	11.0	11.0	91	9.6	8	18	270	0.0	1008.4	0	0.000	0.0
20100530 22:40	11.1	11.1	11.1	91	9.6	8	11	248	0.0	1008.4	0	0.000	0.0
20100530 22:45	11.1	11.1	11.1	91	9.6	6	11	248	0.0	1008.2	0	0.000	0.0
20100530 22:50	11.1	11.1	11.1	91	9.6	6	11	248	0.0	1008.1	0	0.000	0.0
20100530 22:55	11.1	11.1	11.1	91	9.6	6	10	225	0.0	1007.9	0	0.000	0.0
20100530 23:00	11.1	11.1	11.1	91	9.6	5	10	270	0.0	1007.8	0	0.025	0.0
20100530 23:05	11.1	11.1	11.1	91	9.7	5	8	248	0.0	1007.6	0	0.000	0.0
20100530 23:10	11.1	11.1	11.1	91	9.7	5	10	248	0.0	1007.5	0	0.000	0.0
20100530 23:15	11.1	11.1	11.1	91	9.7	3	8	248	0.0	1007.6	0	0.000	0.0
20100530 23:20	11.1	11.1	11.1	91	9.7	5	11	202	0.0	1007.5	0	0.000	0.0
20100530 23:25	11.1	11.1	11.1	91	9.7	6	11	202	0.0	1007.7	0	0.000	0.0
20100530 23:30	11.1	11.1	11.1	91	9.7	8	16	225	0.0	1007.6	0	0.000	0.0
20100530 23:35	11.2	11.2	11.2	91	9.8	8	14	225	0.0	1007.4	0	0.000	0.0
20100530 23:40	11.2	11.2	11.2	91	9.8	8	19	248	0.0	1007.3	0	0.000	0.0
20100530 23:45	11.2	11.2	11.2	90	9.6	10	16	248	0.0	1007.2	0	0.000	0.0
20100530 23:50	11.2	11.2	11.2	90	9.6	10	18	225	0.0	1007.1	0	0.000	0.0
20100530 23:55	11.2	11.2	11.2	90	9.6	11	19	248	0.0	1006.9	0	0.000	0.0



Please note the license to use and transfer of this data:
http://creativecommons.org/licenses/by-nc-sa/3.0/deed.en

Bitte beachten sie die Lizenz zur Verwertung und Weitergabe der Daten:
http://creativecommons.org/licenses/by-nc-sa/3.0/deed.de

zurück zur Übersicht der Archivdaten (Monats und Tagesdaten)

Cookies helfen bei der Bereitstellung von Inhalten. Durch die Nutzung dieser Seiten erklärst du dich damit einverstanden, dass Cookies auf deinem Rechner gespeichert werden. Weitere Information